sensor_id;sensor_type;location;lat;lon;timestamp;P1;durP1;ratioP1;P2;durP2;ratioP2
38853;SDS011;24606;51.992;4.198;2022-08-07T00:03:38;2.60;;;1.63;;
38853;SDS011;24606;51.992;4.198;2022-08-07T00:08:42;3.03;;;1.85;;
38853;SDS011;24606;51.992;4.198;2022-08-07T00:13:44;4.75;;;1.38;;
38853;SDS011;24606;51.992;4.198;2022-08-07T00:18:47;2.63;;;1.80;;
38853;SDS011;24606;51.992;4.198;2022-08-07T00:23:50;4.78;;;1.60;;
38853;SDS011;24606;51.992;4.198;2022-08-07T00:28:52;1.85;;;1.42;;
38853;SDS011;24606;51.992;4.198;2022-08-07T00:33:54;1.95;;;1.20;;
38853;SDS011;24606;51.992;4.198;2022-08-07T00:38:57;3.45;;;1.60;;
38853;SDS011;24606;51.992;4.198;2022-08-07T00:43:59;1.98;;;1.40;;
38853;SDS011;24606;51.992;4.198;2022-08-07T00:49:00;3.10;;;1.83;;
38853;SDS011;24606;51.992;4.198;2022-08-07T00:54:04;2.60;;;1.20;;
38853;SDS011;24606;51.992;4.198;2022-08-07T00:59:06;2.25;;;1.27;;
38853;SDS011;24606;51.992;4.198;2022-08-07T01:04:08;1.38;;;1.20;;
38853;SDS011;24606;51.992;4.198;2022-08-07T01:09:12;2.20;;;1.17;;
38853;SDS011;24606;51.992;4.198;2022-08-07T01:14:14;1.60;;;1.48;;
38853;SDS011;24606;51.992;4.198;2022-08-07T01:19:16;2.30;;;1.27;;
38853;SDS011;24606;51.992;4.198;2022-08-07T01:24:20;1.30;;;1.20;;
38853;SDS011;24606;51.992;4.198;2022-08-07T01:29:23;1.30;;;0.88;;
38853;SDS011;24606;51.992;4.198;2022-08-07T01:34:29;1.70;;;1.17;;
38853;SDS011;24606;51.992;4.198;2022-08-07T01:39:32;2.03;;;1.20;;
38853;SDS011;24606;51.992;4.198;2022-08-07T01:44:34;2.50;;;1.40;;
38853;SDS011;24606;51.992;4.198;2022-08-07T01:49:37;1.35;;;1.08;;
38853;SDS011;24606;51.992;4.198;2022-08-07T01:54:40;3.45;;;1.35;;
38853;SDS011;24606;51.992;4.198;2022-08-07T01:59:45;1.88;;;1.17;;
38853;SDS011;24606;51.992;4.198;2022-08-07T02:04:52;1.95;;;1.20;;
38853;SDS011;24606;51.992;4.198;2022-08-07T02:09:59;1.23;;;1.05;;
38853;SDS011;24606;51.992;4.198;2022-08-07T02:15:03;1.13;;;0.93;;
38853;SDS011;24606;51.992;4.198;2022-08-07T02:20:07;1.90;;;1.27;;
38853;SDS011;24606;51.992;4.198;2022-08-07T02:25:12;3.35;;;1.20;;
38853;SDS011;24606;51.992;4.198;2022-08-07T02:30:16;2.28;;;1.10;;
38853;SDS011;24606;51.992;4.198;2022-08-07T02:35:18;2.25;;;1.27;;
38853;SDS011;24606;51.992;4.198;2022-08-07T02:40:22;2.05;;;1.20;;
38853;SDS011;24606;51.992;4.198;2022-08-07T02:45:25;1.17;;;1.08;;
38853;SDS011;24606;51.992;4.198;2022-08-07T02:50:30;1.75;;;1.40;;
38853;SDS011;24606;51.992;4.198;2022-08-07T02:55:36;1.63;;;1.27;;
38853;SDS011;24606;51.992;4.198;2022-08-07T03:00:43;1.35;;;1.25;;
38853;SDS011;24606;51.992;4.198;2022-08-07T03:05:47;1.90;;;1.42;;
38853;SDS011;24606;51.992;4.198;2022-08-07T03:10:52;1.30;;;1.10;;
38853;SDS011;24606;51.992;4.198;2022-08-07T03:15:56;2.05;;;1.60;;
38853;SDS011;24606;51.992;4.198;2022-08-07T03:20:58;2.13;;;1.08;;
38853;SDS011;24606;51.992;4.198;2022-08-07T03:26:02;1.73;;;1.30;;
38853;SDS011;24606;51.992;4.198;2022-08-07T03:31:05;2.13;;;1.40;;
38853;SDS011;24606;51.992;4.198;2022-08-07T03:36:22;1.92;;;1.40;;
38853;SDS011;24606;51.992;4.198;2022-08-07T03:41:28;1.85;;;1.60;;
38853;SDS011;24606;51.992;4.198;2022-08-07T03:46:31;2.53;;;1.77;;
38853;SDS011;24606;51.992;4.198;2022-08-07T03:51:34;2.55;;;1.50;;
38853;SDS011;24606;51.992;4.198;2022-08-07T03:56:37;3.85;;;1.70;;
38853;SDS011;24606;51.992;4.198;2022-08-07T04:01:40;1.45;;;1.35;;
38853;SDS011;24606;51.992;4.198;2022-08-07T04:06:44;2.30;;;1.40;;
38853;SDS011;24606;51.992;4.198;2022-08-07T04:11:47;3.53;;;1.90;;
38853;SDS011;24606;51.992;4.198;2022-08-07T04:16:50;1.85;;;1.50;;
38853;SDS011;24606;51.992;4.198;2022-08-07T04:21:54;3.53;;;1.58;;
38853;SDS011;24606;51.992;4.198;2022-08-07T04:26:57;4.85;;;1.75;;
38853;SDS011;24606;51.992;4.198;2022-08-07T04:32:02;2.30;;;1.63;;
38853;SDS011;24606;51.992;4.198;2022-08-07T04:37:04;2.60;;;1.88;;
38853;SDS011;24606;51.992;4.198;2022-08-07T04:42:07;2.85;;;1.63;;
38853;SDS011;24606;51.992;4.198;2022-08-07T04:47:10;2.58;;;1.85;;
38853;SDS011;24606;51.992;4.198;2022-08-07T04:52:18;2.47;;;1.70;;
38853;SDS011;24606;51.992;4.198;2022-08-07T05:02:34;2.58;;;1.67;;
38853;SDS011;24606;51.992;4.198;2022-08-07T05:07:46;2.15;;;1.50;;
38853;SDS011;24606;51.992;4.198;2022-08-07T05:13:02;4.27;;;1.80;;
38853;SDS011;24606;51.992;4.198;2022-08-07T05:18:08;5.32;;;1.75;;
38853;SDS011;24606;51.992;4.198;2022-08-07T05:23:15;4.07;;;1.92;;
38853;SDS011;24606;51.992;4.198;2022-08-07T05:28:20;2.45;;;1.77;;
38853;SDS011;24606;51.992;4.198;2022-08-07T05:33:23;2.85;;;1.52;;
38853;SDS011;24606;51.992;4.198;2022-08-07T05:38:27;3.20;;;1.73;;
38853;SDS011;24606;51.992;4.198;2022-08-07T05:43:31;2.80;;;1.90;;
38853;SDS011;24606;51.992;4.198;2022-08-07T05:48:34;4.13;;;1.98;;
38853;SDS011;24606;51.992;4.198;2022-08-07T05:53:40;3.63;;;2.25;;
38853;SDS011;24606;51.992;4.198;2022-08-07T05:58:44;4.63;;;2.05;;
38853;SDS011;24606;51.992;4.198;2022-08-07T06:03:48;7.55;;;3.30;;
38853;SDS011;24606;51.992;4.198;2022-08-07T06:08:53;9.35;;;4.10;;
38853;SDS011;24606;51.992;4.198;2022-08-07T06:13:57;8.85;;;3.92;;
38853;SDS011;24606;51.992;4.198;2022-08-07T06:18:59;8.23;;;4.05;;
38853;SDS011;24606;51.992;4.198;2022-08-07T06:24:02;15.05;;;4.60;;
38853;SDS011;24606;51.992;4.198;2022-08-07T06:29:05;16.50;;;5.90;;
38853;SDS011;24606;51.992;4.198;2022-08-07T06:34:08;11.82;;;4.88;;
38853;SDS011;24606;51.992;4.198;2022-08-07T06:39:10;9.48;;;4.00;;
38853;SDS011;24606;51.992;4.198;2022-08-07T06:44:13;6.63;;;3.20;;
38853;SDS011;24606;51.992;4.198;2022-08-07T06:49:16;7.15;;;3.10;;
38853;SDS011;24606;51.992;4.198;2022-08-07T06:54:18;8.07;;;2.80;;
38853;SDS011;24606;51.992;4.198;2022-08-07T06:59:23;3.67;;;1.85;;
38853;SDS011;24606;51.992;4.198;2022-08-07T07:04:27;3.58;;;2.33;;
38853;SDS011;24606;51.992;4.198;2022-08-07T07:09:30;3.47;;;1.70;;
38853;SDS011;24606;51.992;4.198;2022-08-07T07:14:35;3.88;;;1.90;;
38853;SDS011;24606;51.992;4.198;2022-08-07T07:19:42;4.35;;;1.55;;
38853;SDS011;24606;51.992;4.198;2022-08-07T07:24:49;2.97;;;1.33;;
38853;SDS011;24606;51.992;4.198;2022-08-07T07:29:53;2.90;;;1.67;;
38853;SDS011;24606;51.992;4.198;2022-08-07T07:34:59;2.40;;;1.35;;
38853;SDS011;24606;51.992;4.198;2022-08-07T07:40:05;1.63;;;1.40;;
38853;SDS011;24606;51.992;4.198;2022-08-07T07:45:13;2.70;;;1.40;;
38853;SDS011;24606;51.992;4.198;2022-08-07T07:50:19;5.43;;;1.17;;
38853;SDS011;24606;51.992;4.198;2022-08-07T07:55:22;4.60;;;1.95;;
38853;SDS011;24606;51.992;4.198;2022-08-07T08:00:28;10.80;;;1.50;;
38853;SDS011;24606;51.992;4.198;2022-08-07T08:05:34;6.13;;;1.23;;
38853;SDS011;24606;51.992;4.198;2022-08-07T08:10:38;5.68;;;1.65;;
38853;SDS011;24606;51.992;4.198;2022-08-07T08:15:42;6.47;;;1.30;;
38853;SDS011;24606;51.992;4.198;2022-08-07T08:20:46;2.65;;;1.10;;
38853;SDS011;24606;51.992;4.198;2022-08-07T08:25:49;2.15;;;0.95;;
38853;SDS011;24606;51.992;4.198;2022-08-07T08:31:11;2.45;;;1.05;;
38853;SDS011;24606;51.992;4.198;2022-08-07T08:36:17;1.63;;;0.95;;
38853;SDS011;24606;51.992;4.198;2022-08-07T08:41:23;2.30;;;0.98;;
38853;SDS011;24606;51.992;4.198;2022-08-07T08:46:35;3.15;;;1.30;;
38853;SDS011;24606;51.992;4.198;2022-08-07T08:56:52;3.72;;;1.00;;
38853;SDS011;24606;51.992;4.198;2022-08-07T09:01:58;2.55;;;0.98;;
38853;SDS011;24606;51.992;4.198;2022-08-07T09:07:07;1.02;;;0.80;;
38853;SDS011;24606;51.992;4.198;2022-08-07T09:12:20;1.52;;;0.80;;
38853;SDS011;24606;51.992;4.198;2022-08-07T09:17:36;2.70;;;0.80;;
38853;SDS011;24606;51.992;4.198;2022-08-07T09:22:51;2.58;;;0.80;;
38853;SDS011;24606;51.992;4.198;2022-08-07T09:27:59;1.57;;;0.90;;
38853;SDS011;24606;51.992;4.198;2022-08-07T09:33:07;1.48;;;0.70;;
38853;SDS011;24606;51.992;4.198;2022-08-07T09:38:21;2.58;;;1.05;;
38853;SDS011;24606;51.992;4.198;2022-08-07T09:43:32;2.15;;;0.93;;
38853;SDS011;24606;51.992;4.198;2022-08-07T09:48:48;3.83;;;1.10;;
38853;SDS011;24606;51.992;4.198;2022-08-07T09:53:59;1.70;;;0.90;;
38853;SDS011;24606;51.992;4.198;2022-08-07T09:59:08;1.77;;;0.80;;
38853;SDS011;24606;51.992;4.198;2022-08-07T10:04:32;1.77;;;0.80;;
38853;SDS011;24606;51.992;4.198;2022-08-07T10:09:58;1.00;;;0.80;;
38853;SDS011;24606;51.992;4.198;2022-08-07T10:15:14;3.83;;;1.10;;
38853;SDS011;24606;51.992;4.198;2022-08-07T10:20:30;2.38;;;1.15;;
38853;SDS011;24606;51.992;4.198;2022-08-07T10:25:47;4.03;;;1.13;;
38853;SDS011;24606;51.992;4.198;2022-08-07T10:31:02;2.00;;;1.20;;
38853;SDS011;24606;51.992;4.198;2022-08-07T10:36:19;1.27;;;1.10;;
38853;SDS011;24606;51.992;4.198;2022-08-07T10:41:32;1.38;;;1.00;;
38853;SDS011;24606;51.992;4.198;2022-08-07T10:46:38;1.95;;;1.15;;
38853;SDS011;24606;51.992;4.198;2022-08-07T10:51:49;1.33;;;1.23;;
38853;SDS011;24606;51.992;4.198;2022-08-07T10:56:58;0.98;;;0.93;;
38853;SDS011;24606;51.992;4.198;2022-08-07T11:02:10;3.25;;;1.13;;
38853;SDS011;24606;51.992;4.198;2022-08-07T11:12:45;1.20;;;1.10;;
38853;SDS011;24606;51.992;4.198;2022-08-07T11:17:53;4.13;;;0.98;;
38853;SDS011;24606;51.992;4.198;2022-08-07T11:23:07;1.67;;;1.10;;
38853;SDS011;24606;51.992;4.198;2022-08-07T11:28:20;1.90;;;1.10;;
38853;SDS011;24606;51.992;4.198;2022-08-07T11:33:27;2.88;;;1.63;;
38853;SDS011;24606;51.992;4.198;2022-08-07T11:38:45;1.77;;;1.00;;
38853;SDS011;24606;51.992;4.198;2022-08-07T11:43:56;2.33;;;1.17;;
38853;SDS011;24606;51.992;4.198;2022-08-07T11:49:14;3.30;;;1.70;;
38853;SDS011;24606;51.992;4.198;2022-08-07T11:54:32;6.05;;;1.92;;
38853;SDS011;24606;51.992;4.198;2022-08-07T11:59:46;2.85;;;1.65;;
38853;SDS011;24606;51.992;4.198;2022-08-07T12:05:07;6.07;;;2.22;;
38853;SDS011;24606;51.992;4.198;2022-08-07T12:10:18;5.07;;;2.17;;
38853;SDS011;24606;51.992;4.198;2022-08-07T12:15:26;4.32;;;2.30;;
38853;SDS011;24606;51.992;4.198;2022-08-07T12:20:34;10.50;;;3.28;;
38853;SDS011;24606;51.992;4.198;2022-08-07T12:25:40;6.30;;;3.03;;
38853;SDS011;24606;51.992;4.198;2022-08-07T12:30:56;6.95;;;2.00;;
38853;SDS011;24606;51.992;4.198;2022-08-07T12:36:04;15.20;;;4.68;;
38853;SDS011;24606;51.992;4.198;2022-08-07T12:41:11;9.35;;;3.67;;
38853;SDS011;24606;51.992;4.198;2022-08-07T12:46:17;5.85;;;2.38;;
38853;SDS011;24606;51.992;4.198;2022-08-07T12:51:25;6.68;;;2.95;;
38853;SDS011;24606;51.992;4.198;2022-08-07T12:56:30;4.82;;;1.73;;
38853;SDS011;24606;51.992;4.198;2022-08-07T13:01:41;5.03;;;1.60;;
38853;SDS011;24606;51.992;4.198;2022-08-07T13:06:58;2.30;;;1.50;;
38853;SDS011;24606;51.992;4.198;2022-08-07T13:12:18;7.28;;;1.50;;
38853;SDS011;24606;51.992;4.198;2022-08-07T13:17:27;2.67;;;1.40;;
38853;SDS011;24606;51.992;4.198;2022-08-07T13:22:35;2.25;;;1.20;;
38853;SDS011;24606;51.992;4.198;2022-08-07T13:27:45;4.88;;;1.20;;
38853;SDS011;24606;51.992;4.198;2022-08-07T13:32:52;7.40;;;1.13;;
38853;SDS011;24606;51.992;4.198;2022-08-07T13:38:00;2.17;;;1.10;;
38853;SDS011;24606;51.992;4.198;2022-08-07T13:43:13;6.43;;;1.77;;
38853;SDS011;24606;51.992;4.198;2022-08-07T13:48:17;1.75;;;1.10;;
38853;SDS011;24606;51.992;4.198;2022-08-07T13:53:28;2.75;;;1.33;;
38853;SDS011;24606;51.992;4.198;2022-08-07T13:58:37;1.70;;;0.80;;
38853;SDS011;24606;51.992;4.198;2022-08-07T14:04:00;1.95;;;0.90;;
38853;SDS011;24606;51.992;4.198;2022-08-07T14:09:14;6.18;;;1.65;;
38853;SDS011;24606;51.992;4.198;2022-08-07T14:14:25;14.07;;;3.72;;
38853;SDS011;24606;51.992;4.198;2022-08-07T14:19:33;4.38;;;1.60;;
38853;SDS011;24606;51.992;4.198;2022-08-07T14:24:38;11.15;;;4.53;;
38853;SDS011;24606;51.992;4.198;2022-08-07T14:29:46;13.00;;;4.80;;
38853;SDS011;24606;51.992;4.198;2022-08-07T14:34:52;3.22;;;1.65;;
38853;SDS011;24606;51.992;4.198;2022-08-07T14:39:55;11.18;;;3.55;;
38853;SDS011;24606;51.992;4.198;2022-08-07T14:45:00;11.80;;;5.55;;
38853;SDS011;24606;51.992;4.198;2022-08-07T14:50:05;9.63;;;4.63;;
38853;SDS011;24606;51.992;4.198;2022-08-07T14:55:09;6.07;;;2.38;;
38853;SDS011;24606;51.992;4.198;2022-08-07T15:00:14;9.85;;;3.50;;
38853;SDS011;24606;51.992;4.198;2022-08-07T15:05:18;6.78;;;2.10;;
38853;SDS011;24606;51.992;4.198;2022-08-07T15:10:23;6.47;;;2.20;;
38853;SDS011;24606;51.992;4.198;2022-08-07T15:15:33;3.63;;;1.95;;
38853;SDS011;24606;51.992;4.198;2022-08-07T15:20:38;3.67;;;2.00;;
38853;SDS011;24606;51.992;4.198;2022-08-07T15:25:44;5.22;;;1.80;;
38853;SDS011;24606;51.992;4.198;2022-08-07T15:30:58;8.98;;;2.63;;
38853;SDS011;24606;51.992;4.198;2022-08-07T15:36:03;6.03;;;2.28;;
38853;SDS011;24606;51.992;4.198;2022-08-07T15:41:08;3.58;;;1.95;;
38853;SDS011;24606;51.992;4.198;2022-08-07T15:46:17;3.22;;;1.73;;
38853;SDS011;24606;51.992;4.198;2022-08-07T15:51:21;3.30;;;1.70;;
38853;SDS011;24606;51.992;4.198;2022-08-07T15:56:28;4.55;;;1.80;;
38853;SDS011;24606;51.992;4.198;2022-08-07T16:01:47;4.15;;;1.65;;
38853;SDS011;24606;51.992;4.198;2022-08-07T16:06:52;4.07;;;1.05;;
38853;SDS011;24606;51.992;4.198;2022-08-07T16:11:59;2.28;;;1.33;;
38853;SDS011;24606;51.992;4.198;2022-08-07T16:17:15;2.05;;;1.20;;
38853;SDS011;24606;51.992;4.198;2022-08-07T16:22:39;7.72;;;1.20;;
38853;SDS011;24606;51.992;4.198;2022-08-07T16:27:50;1.48;;;1.33;;
38853;SDS011;24606;51.992;4.198;2022-08-07T16:33:03;2.15;;;1.35;;
38853;SDS011;24606;51.992;4.198;2022-08-07T16:38:14;1.83;;;0.98;;
38853;SDS011;24606;51.992;4.198;2022-08-07T16:43:49;2.65;;;1.40;;
38853;SDS011;24606;51.992;4.198;2022-08-07T16:49:23;3.03;;;1.58;;
38853;SDS011;24606;51.992;4.198;2022-08-07T16:54:46;1.48;;;0.75;;
38853;SDS011;24606;51.992;4.198;2022-08-07T17:00:00;2.22;;;1.15;;
38853;SDS011;24606;51.992;4.198;2022-08-07T17:05:10;1.50;;;1.07;;
38853;SDS011;24606;51.992;4.198;2022-08-07T17:10:25;4.63;;;1.17;;
38853;SDS011;24606;51.992;4.198;2022-08-07T17:15:36;3.45;;;1.40;;
38853;SDS011;24606;51.992;4.198;2022-08-07T17:20:43;4.43;;;1.73;;
38853;SDS011;24606;51.992;4.198;2022-08-07T17:25:50;8.10;;;2.70;;
38853;SDS011;24606;51.992;4.198;2022-08-07T17:31:00;5.32;;;2.45;;
38853;SDS011;24606;51.992;4.198;2022-08-07T17:36:12;7.65;;;2.40;;
38853;SDS011;24606;51.992;4.198;2022-08-07T17:41:21;9.52;;;2.92;;
38853;SDS011;24606;51.992;4.198;2022-08-07T17:46:35;9.23;;;3.10;;
38853;SDS011;24606;51.992;4.198;2022-08-07T17:51:45;12.47;;;4.33;;
38853;SDS011;24606;51.992;4.198;2022-08-07T17:56:53;12.80;;;5.15;;
38853;SDS011;24606;51.992;4.198;2022-08-07T18:02:00;10.52;;;4.20;;
38853;SDS011;24606;51.992;4.198;2022-08-07T18:07:14;9.75;;;4.88;;
38853;SDS011;24606;51.992;4.198;2022-08-07T18:12:34;16.88;;;6.53;;
38853;SDS011;24606;51.992;4.198;2022-08-07T18:17:49;24.38;;;9.25;;
38853;SDS011;24606;51.992;4.198;2022-08-07T18:23:01;19.58;;;8.82;;
38853;SDS011;24606;51.992;4.198;2022-08-07T18:28:09;19.83;;;7.30;;
38853;SDS011;24606;51.992;4.198;2022-08-07T18:39:10;17.95;;;7.18;;
38853;SDS011;24606;51.992;4.198;2022-08-07T18:44:21;12.15;;;5.82;;
38853;SDS011;24606;51.992;4.198;2022-08-07T18:49:34;13.10;;;5.13;;
38853;SDS011;24606;51.992;4.198;2022-08-07T18:54:50;12.70;;;4.60;;
38853;SDS011;24606;51.992;4.198;2022-08-07T19:00:04;10.80;;;4.75;;
38853;SDS011;24606;51.992;4.198;2022-08-07T19:05:09;12.23;;;4.22;;
38853;SDS011;24606;51.992;4.198;2022-08-07T19:10:22;7.10;;;3.08;;
38853;SDS011;24606;51.992;4.198;2022-08-07T19:15:31;8.30;;;2.95;;
38853;SDS011;24606;51.992;4.198;2022-08-07T19:20:46;12.57;;;2.70;;
38853;SDS011;24606;51.992;4.198;2022-08-07T19:25:55;7.22;;;2.53;;
38853;SDS011;24606;51.992;4.198;2022-08-07T19:31:06;7.95;;;2.33;;
38853;SDS011;24606;51.992;4.198;2022-08-07T19:36:12;5.90;;;1.98;;
38853;SDS011;24606;51.992;4.198;2022-08-07T19:41:19;5.65;;;2.05;;
38853;SDS011;24606;51.992;4.198;2022-08-07T19:46:24;4.45;;;1.77;;
38853;SDS011;24606;51.992;4.198;2022-08-07T19:51:31;6.78;;;2.08;;
38853;SDS011;24606;51.992;4.198;2022-08-07T19:56:39;4.97;;;1.55;;
38853;SDS011;24606;51.992;4.198;2022-08-07T20:01:43;3.35;;;1.40;;
38853;SDS011;24606;51.992;4.198;2022-08-07T20:06:47;3.78;;;1.35;;
38853;SDS011;24606;51.992;4.198;2022-08-07T20:11:53;3.53;;;1.45;;
38853;SDS011;24606;51.992;4.198;2022-08-07T20:16:56;2.42;;;1.73;;
38853;SDS011;24606;51.992;4.198;2022-08-07T20:22:00;4.60;;;1.42;;
38853;SDS011;24606;51.992;4.198;2022-08-07T20:27:08;3.45;;;1.83;;
38853;SDS011;24606;51.992;4.198;2022-08-07T20:32:12;2.67;;;1.35;;
38853;SDS011;24606;51.992;4.198;2022-08-07T20:37:20;2.17;;;1.33;;
38853;SDS011;24606;51.992;4.198;2022-08-07T20:42:26;1.75;;;1.05;;
38853;SDS011;24606;51.992;4.198;2022-08-07T20:47:29;2.08;;;1.10;;
38853;SDS011;24606;51.992;4.198;2022-08-07T20:52:35;2.78;;;1.77;;
38853;SDS011;24606;51.992;4.198;2022-08-07T20:57:40;1.48;;;1.08;;
38853;SDS011;24606;51.992;4.198;2022-08-07T21:02:49;2.50;;;1.10;;
38853;SDS011;24606;51.992;4.198;2022-08-07T21:08:02;2.72;;;1.35;;
38853;SDS011;24606;51.992;4.198;2022-08-07T21:13:11;4.10;;;1.00;;
38853;SDS011;24606;51.992;4.198;2022-08-07T21:18:20;4.47;;;1.40;;
38853;SDS011;24606;51.992;4.198;2022-08-07T21:23:26;1.35;;;1.15;;
38853;SDS011;24606;51.992;4.198;2022-08-07T21:28:42;1.67;;;1.00;;
38853;SDS011;24606;51.992;4.198;2022-08-07T21:33:48;2.33;;;1.20;;
38853;SDS011;24606;51.992;4.198;2022-08-07T21:38:57;3.13;;;1.00;;
38853;SDS011;24606;51.992;4.198;2022-08-07T21:44:11;1.75;;;1.05;;
38853;SDS011;24606;51.992;4.198;2022-08-07T21:49:16;2.45;;;1.35;;
38853;SDS011;24606;51.992;4.198;2022-08-07T21:54:26;3.40;;;1.10;;
38853;SDS011;24606;51.992;4.198;2022-08-07T21:59:47;1.88;;;1.02;;
38853;SDS011;24606;51.992;4.198;2022-08-07T22:04:59;1.17;;;0.88;;
38853;SDS011;24606;51.992;4.198;2022-08-07T22:10:03;1.10;;;1.00;;
38853;SDS011;24606;51.992;4.198;2022-08-07T22:15:11;1.55;;;1.00;;
38853;SDS011;24606;51.992;4.198;2022-08-07T22:20:16;1.67;;;0.85;;
38853;SDS011;24606;51.992;4.198;2022-08-07T22:25:23;3.67;;;1.27;;
38853;SDS011;24606;51.992;4.198;2022-08-07T22:30:38;1.75;;;1.25;;
38853;SDS011;24606;51.992;4.198;2022-08-07T22:35:46;1.50;;;1.10;;
38853;SDS011;24606;51.992;4.198;2022-08-07T22:40:55;1.83;;;1.20;;
38853;SDS011;24606;51.992;4.198;2022-08-07T22:51:36;2.15;;;1.45;;
38853;SDS011;24606;51.992;4.198;2022-08-07T22:56:51;1.60;;;1.15;;
38853;SDS011;24606;51.992;4.198;2022-08-07T23:02:18;3.60;;;1.40;;
38853;SDS011;24606;51.992;4.198;2022-08-07T23:07:36;3.73;;;1.20;;
38853;SDS011;24606;51.992;4.198;2022-08-07T23:12:54;3.92;;;1.30;;
38853;SDS011;24606;51.992;4.198;2022-08-07T23:18:11;5.68;;;1.55;;
38853;SDS011;24606;51.992;4.198;2022-08-07T23:23:31;2.60;;;1.45;;
38853;SDS011;24606;51.992;4.198;2022-08-07T23:28:53;2.55;;;1.30;;
38853;SDS011;24606;51.992;4.198;2022-08-07T23:34:18;3.70;;;1.75;;
38853;SDS011;24606;51.992;4.198;2022-08-07T23:39:31;2.95;;;1.20;;
38853;SDS011;24606;51.992;4.198;2022-08-07T23:45:00;3.53;;;1.50;;
38853;SDS011;24606;51.992;4.198;2022-08-07T23:50:15;2.08;;;1.52;;
38853;SDS011;24606;51.992;4.198;2022-08-07T23:55:44;2.67;;;1.30;;
